• Join FlightAware (Why Join?)
  • Login
  • US Flag 
10:11AM EDT


 

Airport Tracker/Info


-or-


 

Live Flight TrackerFlight Track Log ✈ CSN3235 ✈ 25-Jun-2013 ✈ ZGKL / KWL - ZGGG / CAN

Flight Track Log - Related Links

Times and Time Zones

All times are in EDT time to prevent confusion due to time zone crossing. See the CSN3235 flight status page for this flight to view local times or setup timezone preferences in your user account.

Time Position Orientation Groundspeed Altitude Reporting Facility
EDT Latitude Longitude Course Direction KTS MPH feet Rate Location/Type
09:50PM 24.3820 110.9920 121° Southeast 394 453 24,600  Level FlightAware
09:51PM 25.1584 110.1493 121° Southeast  Level Estimated
09:51PM 24.3510 111.0420 124° Southeast 394 453 24,600  Level FlightAware
09:51PM 24.3000 111.1240 124° Southeast 392 451 24,600  Level FlightAware
09:52PM 24.2550 111.1970 124° Southeast 394 453 24,600  Level FlightAware
09:53PM 24.2230 111.2520 123° Southeast 394 453 24,600  Level FlightAware
09:53PM 24.1600 111.3240 134° Southeast 394 453 24,600  Level FlightAware
09:54PM 24.1160 111.3720 135° Southeast 394 453 24,600  Level FlightAware
09:55PM 24.0550 111.4380 135° Southeast 394 453 24,600  Level FlightAware
09:55PM 23.9980 111.4990 136° Southeast 391 450 24,600  Level FlightAware
09:56PM 23.9470 111.5540 135° Southeast 394 453 24,600  Level FlightAware
09:57PM 23.8870 111.6180 136° Southeast 398 458 24,600  Level FlightAware
09:58PM 23.8330 111.6760 136° Southeast 395 455 24,600  Level FlightAware
09:58PM 23.7750 111.7380 136° Southeast 397 457 24,600  Level FlightAware
09:59PM 23.7190 111.7980 136° Southeast 398 458 24,600  Level FlightAware
10:00PM 23.6450 111.8770 136° Southeast 403 464 24,600 -180 Level FlightAware
10:01PM 23.5910 111.9360 135° Southeast 403 464 24,300 -1,500 Descending FlightAware
10:01PM 23.5350 111.9940 136° Southeast 386 444 22,600 -2,160 Descending FlightAware
10:02PM 23.4820 112.0510 135° Southeast 378 435 21,400 -1,740 Descending FlightAware
10:03PM 23.4300 112.1060 136° Southeast 374 430 20,200 -1,740 Descending FlightAware
10:03PM 23.3800 112.1590 136° Southeast 365 420 19,000 -1,740 Descending FlightAware
10:04PM 23.3310 112.2120 135° Southeast 358 412 17,800 -1,800 Descending FlightAware
10:05PM 23.2770 112.2680 136° Southeast 349 402 16,500 -1,740 Descending FlightAware
10:06PM 23.2260 112.3230 135° Southeast 339 390 15,300 -1,440 Descending FlightAware
10:06PM 23.1810 112.3710 136° Southeast 333 383 14,500 -1,080 Descending FlightAware
10:07PM 23.1350 112.4190 136° Southeast 330 380 13,900 -900 Descending FlightAware
10:08PM 23.0920 112.4640 136° Southeast 330 380 13,300 -1,020 Descending FlightAware
10:08PM 23.0710 112.5030 120° Southeast 337 388 12,800 -900 Descending FlightAware
10:09PM 23.0700 112.6510 90° East 335 386 11,600 -900 Descending FlightAware
10:10PM 23.0690 112.7140 91° East 335 386 11,000 -960 Descending FlightAware
10:11PM 23.0690 112.7920 90° East 319 367 10,300 -900 Descending FlightAware
10:11PM 23.0690 112.8330 90° East 305 351 9,900 -900 Descending FlightAware
10:12PM 23.0680 112.8670 92° East 295 339 9,600 -900 Descending FlightAware
10:12PM 23.0820 112.9140 72° East 292 336 9,100 -540 Descending FlightAware
10:13PM 23.1100 112.9420 43° Northeast 297 342 9,100  Level FlightAware
10:13PM 23.1380 112.9700 43° Northeast 297 342 9,100  Level FlightAware
10:14PM 23.1660 112.9980 43° Northeast 300 345 9,100  Level FlightAware
10:14PM 23.1850 113.0120 34° Northeast 299 344 9,100  Level FlightAware
10:14PM 23.2150 113.0360 36° Northeast 296 341 9,100  Level FlightAware
10:15PM 23.2470 113.0600 35° Northeast 295 339 9,100  Level FlightAware
10:15PM 23.2800 113.0860 36° Northeast 292 336 9,100  Level FlightAware
10:16PM 23.3100 113.1100 36° Northeast 291 335 9,100 -240 Level FlightAware
10:16PM 23.3420 113.1340 35° Northeast 292 336 8,900 -480 Descending FlightAware
10:17PM 23.3660 113.1530 36° Northeast 292 336 8,700 -600 Descending FlightAware
10:17PM 23.3990 113.1790 36° Northeast 291 335 8,400 -660 Descending FlightAware
10:18PM 23.4310 113.2000 31° Northeast 287 330 8,100 -660 Descending FlightAware
10:18PM 23.4680 113.2130 18° North 271 312 7,800 -600 Descending FlightAware
10:19PM 23.5030 113.2260 19° North 257 296 7,500 -840 Descending FlightAware
10:19PM 23.5190 113.2320 19° North 255 293 7,200 -1,140 Descending FlightAware
10:19PM 23.5450 113.2420 19° North 254 292 6,800 -1,020 Descending FlightAware
10:20PM 23.5790 113.2560 21° North 253 291 6,300 -1,020 Descending FlightAware
10:20PM 23.6080 113.2670 19° North 252 290 5,900 -1,020 Descending FlightAware
10:21PM 23.6380 113.2780 19° North 248 285 5,400 -1,020 Descending FlightAware
10:21PM 23.6650 113.2880 19° North 245 282 5,000 -1,080 Descending FlightAware
10:22PM 23.7000 113.3010 19° North 245 282 4,400 -1,080 Descending FlightAware
10:22PM 23.7130 113.3110 35° Northeast 243 280 4,200 -900 Descending FlightAware
10:22PM 23.7200 113.3250 61° Northeast 232 267 4,000 -600 Descending FlightAware
10:22PM 23.7220 113.3330 75° East 225 259 4,000  Level FlightAware
10:23PM 23.7270 113.3600 79° East 225 259 4,000 -300 Level FlightAware
10:25PM 23.5132 113.3208 190° South  Level Estimated
10:25PM 23.6090 113.3680 190° South 178 205 3,200  Level FlightAware
10:26PM 23.5870 113.3620 194° South 178 205 3,200  Level FlightAware
10:26PM 23.5640 113.3560 193° South 177 204 3,200 -480 Level FlightAware
10:26PM 23.5430 113.3510 192° South 176 203 2,800 -540 Descending FlightAware
10:27PM 23.5130 113.3430 194° South 168 193 2,600 -300 Descending FlightAware
10:30PM 23.3924 113.2988 199° South  Level Estimated
10:31PM 23.3924 113.2988 223° Southwest  Level Estimated
10:32PM 23.3924 113.2988 223° Southwest  Level Estimated
10:33PM 23.3924 113.2988 223° Southwest  Level Estimated
10:34PM 23.3924 113.2988 223° Southwest  Level Estimated
10:35PM 23.3924 113.2988 223° Southwest  Level Estimated
10:36PM 23.3924 113.2988 223° Southwest  Level Estimated